フィレンツェ の空港の天気 - METARとTAF

フィレンツェ・ペレトラ空港 ( LIRQ / FLR ) - イタリア フィレンツェ
飛行場実況気象(Metar)
観測時間08/18 04:50 CEST (08/18 02:50 UTC)
風向・風速南 1m/s
視程10km以上
天気現象
なし
気温19℃
湿度83%
気圧1015hPa
METARLIRQ 180250Z 17002KT CAVOK 19/16 Q1015
過去の天気等 Google飛行場航空写真 Wunderground天気予報

過去48時間のMETAR

飛行場予報(TAF)
発表時間: 8/18 01:00 CEST (8/17 23:00 UTC)
予報対象時間: 18日2時 CEST ~ 19日2時 CEST
風向・風速不定 3m/s
視程10km以上
少しの雲 雲底高度 1520m
18日11時 CEST ~ 18日13時 CEST に徐々に
風向・風速北北東 5m/s
TAF LIRQ 172300Z 1800/1824 VRB05KT 9999 FEW050
BECMG 1809/1811 03010KT